Terminal Aerodrome Forecast
Issued by NWS

Home | Current Version | Previous Version | Text Only | Print | Product List | Glossary On
Versions: 1 2 3 4 5 6 7 8 9 10 11 12
000
FTUS45 KRIW 171700
TAFRKS
TAF
KRKS 171720Z 1718/1818 27012G20KT P6SM VCSH SCT050 BKN120
     FM180100 25009KT P6SM SCT110
     FM180500 20006KT P6SM FEW120=

USA.gov is the U.S. government's official web portal to all federal, state and local government web resources and services.